sensor_id;sensor_type;location;lat;lon;timestamp;temperature;humidity
42743;DHT22;28397;44.552;-0.848;2023-12-20T00:00:26;12.00;99.90
42743;DHT22;28397;44.552;-0.848;2023-12-20T00:02:51;12.10;99.90
42743;DHT22;28397;44.552;-0.848;2023-12-20T00:05:17;12.10;99.90
42743;DHT22;28397;44.552;-0.848;2023-12-20T00:07:43;12.30;99.90
42743;DHT22;28397;44.552;-0.848;2023-12-20T00:10:09;12.40;99.90
42743;DHT22;28397;44.552;-0.848;2023-12-20T00:12:34;12.60;99.90
42743;DHT22;28397;44.552;-0.848;2023-12-20T00:15:00;12.70;99.90
42743;DHT22;28397;44.552;-0.848;2023-12-20T00:17:26;12.90;99.90
42743;DHT22;28397;44.552;-0.848;2023-12-20T00:19:51;13.10;99.90
42743;DHT22;28397;44.552;-0.848;2023-12-20T00:22:17;13.00;99.90
42743;DHT22;28397;44.552;-0.848;2023-12-20T00:24:42;13.10;99.90
42743;DHT22;28397;44.552;-0.848;2023-12-20T00:27:08;13.10;99.90
42743;DHT22;28397;44.552;-0.848;2023-12-20T00:29:34;13.00;99.90
42743;DHT22;28397;44.552;-0.848;2023-12-20T00:31:59;13.00;99.90
42743;DHT22;28397;44.552;-0.848;2023-12-20T00:34:25;13.10;99.90
42743;DHT22;28397;44.552;-0.848;2023-12-20T00:36:51;13.10;99.90
42743;DHT22;28397;44.552;-0.848;2023-12-20T00:39:16;12.90;99.90
42743;DHT22;28397;44.552;-0.848;2023-12-20T00:41:42;12.80;99.90
42743;DHT22;28397;44.552;-0.848;2023-12-20T00:44:08;12.70;99.90
42743;DHT22;28397;44.552;-0.848;2023-12-20T00:46:34;12.60;99.90
42743;DHT22;28397;44.552;-0.848;2023-12-20T00:48:59;12.60;99.90
42743;DHT22;28397;44.552;-0.848;2023-12-20T00:51:25;12.50;99.90
42743;DHT22;28397;44.552;-0.848;2023-12-20T00:53:51;12.40;99.90
42743;DHT22;28397;44.552;-0.848;2023-12-20T00:56:20;12.40;99.90
42743;DHT22;28397;44.552;-0.848;2023-12-20T00:58:46;12.40;99.90
42743;DHT22;28397;44.552;-0.848;2023-12-20T01:01:11;12.30;99.90
42743;DHT22;28397;44.552;-0.848;2023-12-20T01:03:38;12.30;99.90
42743;DHT22;28397;44.552;-0.848;2023-12-20T01:06:04;12.30;99.90
42743;DHT22;28397;44.552;-0.848;2023-12-20T01:08:30;12.30;99.90
42743;DHT22;28397;44.552;-0.848;2023-12-20T01:10:56;12.20;99.90
42743;DHT22;28397;44.552;-0.848;2023-12-20T01:13:22;12.10;99.90
42743;DHT22;28397;44.552;-0.848;2023-12-20T01:15:47;12.00;99.90
42743;DHT22;28397;44.552;-0.848;2023-12-20T01:18:13;12.00;99.90
42743;DHT22;28397;44.552;-0.848;2023-12-20T01:20:40;12.00;99.90
42743;DHT22;28397;44.552;-0.848;2023-12-20T01:23:06;12.00;99.90
42743;DHT22;28397;44.552;-0.848;2023-12-20T01:25:31;11.90;99.90
42743;DHT22;28397;44.552;-0.848;2023-12-20T01:27:57;11.90;99.90
42743;DHT22;28397;44.552;-0.848;2023-12-20T01:30:23;11.80;99.90
42743;DHT22;28397;44.552;-0.848;2023-12-20T01:32:49;11.80;99.90
42743;DHT22;28397;44.552;-0.848;2023-12-20T01:35:15;11.80;99.90
42743;DHT22;28397;44.552;-0.848;2023-12-20T01:37:41;11.80;99.90
42743;DHT22;28397;44.552;-0.848;2023-12-20T01:40:07;11.70;99.90
42743;DHT22;28397;44.552;-0.848;2023-12-20T01:42:33;11.70;99.90
42743;DHT22;28397;44.552;-0.848;2023-12-20T01:44:59;11.70;99.90
42743;DHT22;28397;44.552;-0.848;2023-12-20T01:47:25;11.60;99.90
42743;DHT22;28397;44.552;-0.848;2023-12-20T01:49:52;11.60;99.90
42743;DHT22;28397;44.552;-0.848;2023-12-20T01:52:19;11.60;99.90
42743;DHT22;28397;44.552;-0.848;2023-12-20T01:54:45;11.60;99.90
42743;DHT22;28397;44.552;-0.848;2023-12-20T01:57:11;11.80;99.90
42743;DHT22;28397;44.552;-0.848;2023-12-20T01:59:38;12.00;99.90
42743;DHT22;28397;44.552;-0.848;2023-12-20T02:02:05;12.10;99.90
42743;DHT22;28397;44.552;-0.848;2023-12-20T02:04:31;12.10;99.90
42743;DHT22;28397;44.552;-0.848;2023-12-20T02:06:57;12.20;99.90
42743;DHT22;28397;44.552;-0.848;2023-12-20T02:09:24;12.30;99.90
42743;DHT22;28397;44.552;-0.848;2023-12-20T02:11:49;12.40;99.90
42743;DHT22;28397;44.552;-0.848;2023-12-20T02:14:15;12.20;99.90
42743;DHT22;28397;44.552;-0.848;2023-12-20T02:16:41;12.30;99.90
42743;DHT22;28397;44.552;-0.848;2023-12-20T02:19:13;12.40;99.90
42743;DHT22;28397;44.552;-0.848;2023-12-20T02:21:39;12.30;99.90
42743;DHT22;28397;44.552;-0.848;2023-12-20T02:24:05;12.40;99.90
42743;DHT22;28397;44.552;-0.848;2023-12-20T02:26:32;12.30;99.90
42743;DHT22;28397;44.552;-0.848;2023-12-20T02:28:59;12.20;99.90
42743;DHT22;28397;44.552;-0.848;2023-12-20T02:31:24;12.00;99.90
42743;DHT22;28397;44.552;-0.848;2023-12-20T02:33:50;11.90;99.90
42743;DHT22;28397;44.552;-0.848;2023-12-20T02:36:16;11.80;99.90
42743;DHT22;28397;44.552;-0.848;2023-12-20T02:38:41;11.70;99.90
42743;DHT22;28397;44.552;-0.848;2023-12-20T02:41:07;11.70;99.90
42743;DHT22;28397;44.552;-0.848;2023-12-20T02:43:33;11.70;99.90
42743;DHT22;28397;44.552;-0.848;2023-12-20T02:45:58;11.60;99.90
42743;DHT22;28397;44.552;-0.848;2023-12-20T02:48:24;11.60;99.90
42743;DHT22;28397;44.552;-0.848;2023-12-20T02:50:50;11.60;99.90
42743;DHT22;28397;44.552;-0.848;2023-12-20T02:53:16;11.60;99.90
42743;DHT22;28397;44.552;-0.848;2023-12-20T02:55:41;11.50;99.90
42743;DHT22;28397;44.552;-0.848;2023-12-20T02:58:07;11.50;99.90
42743;DHT22;28397;44.552;-0.848;2023-12-20T03:00:33;11.50;99.90
42743;DHT22;28397;44.552;-0.848;2023-12-20T03:02:59;11.50;99.90
42743;DHT22;28397;44.552;-0.848;2023-12-20T03:05:25;11.40;99.90
42743;DHT22;28397;44.552;-0.848;2023-12-20T03:07:51;11.40;99.90
42743;DHT22;28397;44.552;-0.848;2023-12-20T03:10:18;11.30;99.90
42743;DHT22;28397;44.552;-0.848;2023-12-20T03:12:44;11.40;99.90
42743;DHT22;28397;44.552;-0.848;2023-12-20T03:15:10;11.30;99.90
42743;DHT22;28397;44.552;-0.848;2023-12-20T03:17:36;11.30;99.90
42743;DHT22;28397;44.552;-0.848;2023-12-20T03:20:02;11.30;99.90
42743;DHT22;28397;44.552;-0.848;2023-12-20T03:22:27;11.30;99.90
42743;DHT22;28397;44.552;-0.848;2023-12-20T03:24:53;11.30;99.90
42743;DHT22;28397;44.552;-0.848;2023-12-20T03:27:19;11.20;99.90
42743;DHT22;28397;44.552;-0.848;2023-12-20T03:29:44;11.20;99.90
42743;DHT22;28397;44.552;-0.848;2023-12-20T03:32:10;11.20;99.90
42743;DHT22;28397;44.552;-0.848;2023-12-20T03:34:36;11.20;99.90
42743;DHT22;28397;44.552;-0.848;2023-12-20T03:37:01;11.20;99.90
42743;DHT22;28397;44.552;-0.848;2023-12-20T03:39:27;11.20;99.90
42743;DHT22;28397;44.552;-0.848;2023-12-20T03:41:53;11.10;99.90
42743;DHT22;28397;44.552;-0.848;2023-12-20T03:44:18;11.20;99.90
42743;DHT22;28397;44.552;-0.848;2023-12-20T03:46:44;11.40;99.90
42743;DHT22;28397;44.552;-0.848;2023-12-20T03:49:11;11.50;99.90
42743;DHT22;28397;44.552;-0.848;2023-12-20T03:51:36;11.50;99.90
42743;DHT22;28397;44.552;-0.848;2023-12-20T03:54:02;11.60;99.90
42743;DHT22;28397;44.552;-0.848;2023-12-20T03:56:28;11.70;99.90
42743;DHT22;28397;44.552;-0.848;2023-12-20T03:58:54;11.80;99.90
42743;DHT22;28397;44.552;-0.848;2023-12-20T04:01:19;11.90;99.90
42743;DHT22;28397;44.552;-0.848;2023-12-20T04:03:45;11.90;99.90
42743;DHT22;28397;44.552;-0.848;2023-12-20T04:06:17;11.90;99.90
42743;DHT22;28397;44.552;-0.848;2023-12-20T04:08:43;11.90;99.90
42743;DHT22;28397;44.552;-0.848;2023-12-20T04:11:08;11.90;99.90
42743;DHT22;28397;44.552;-0.848;2023-12-20T04:13:34;11.90;99.90
42743;DHT22;28397;44.552;-0.848;2023-12-20T04:15:59;11.60;99.90
42743;DHT22;28397;44.552;-0.848;2023-12-20T04:18:25;11.50;99.90
42743;DHT22;28397;44.552;-0.848;2023-12-20T04:20:51;11.40;99.90
42743;DHT22;28397;44.552;-0.848;2023-12-20T04:23:17;11.30;99.90
42743;DHT22;28397;44.552;-0.848;2023-12-20T04:25:42;11.20;99.90
42743;DHT22;28397;44.552;-0.848;2023-12-20T04:28:08;11.10;99.90
42743;DHT22;28397;44.552;-0.848;2023-12-20T04:30:35;11.20;99.90
42743;DHT22;28397;44.552;-0.848;2023-12-20T04:33:00;11.10;99.90
42743;DHT22;28397;44.552;-0.848;2023-12-20T04:35:26;11.10;99.90
42743;DHT22;28397;44.552;-0.848;2023-12-20T04:37:52;11.00;99.90
42743;DHT22;28397;44.552;-0.848;2023-12-20T04:40:17;11.00;99.90
42743;DHT22;28397;44.552;-0.848;2023-12-20T04:42:43;11.00;99.90
42743;DHT22;28397;44.552;-0.848;2023-12-20T04:45:09;11.00;99.90
42743;DHT22;28397;44.552;-0.848;2023-12-20T04:47:34;11.00;99.90
42743;DHT22;28397;44.552;-0.848;2023-12-20T04:50:00;10.90;99.90
42743;DHT22;28397;44.552;-0.848;2023-12-20T04:52:26;10.90;99.90
42743;DHT22;28397;44.552;-0.848;2023-12-20T04:54:51;10.90;99.90
42743;DHT22;28397;44.552;-0.848;2023-12-20T04:57:17;10.90;99.90
42743;DHT22;28397;44.552;-0.848;2023-12-20T04:59:43;10.90;99.90
42743;DHT22;28397;44.552;-0.848;2023-12-20T05:02:08;10.80;99.90
42743;DHT22;28397;44.552;-0.848;2023-12-20T05:04:34;10.80;99.90
42743;DHT22;28397;44.552;-0.848;2023-12-20T05:07:00;10.80;99.90
42743;DHT22;28397;44.552;-0.848;2023-12-20T05:09:26;10.80;99.90
42743;DHT22;28397;44.552;-0.848;2023-12-20T05:11:51;10.70;99.90
42743;DHT22;28397;44.552;-0.848;2023-12-20T05:14:17;10.70;99.90
42743;DHT22;28397;44.552;-0.848;2023-12-20T05:16:43;10.70;99.90
42743;DHT22;28397;44.552;-0.848;2023-12-20T05:19:08;10.70;99.90
42743;DHT22;28397;44.552;-0.848;2023-12-20T05:21:34;10.70;99.90
42743;DHT22;28397;44.552;-0.848;2023-12-20T05:24:00;10.60;99.90
42743;DHT22;28397;44.552;-0.848;2023-12-20T05:26:26;10.50;99.90
42743;DHT22;28397;44.552;-0.848;2023-12-20T05:28:51;10.50;99.90
42743;DHT22;28397;44.552;-0.848;2023-12-20T05:31:17;10.40;99.90
42743;DHT22;28397;44.552;-0.848;2023-12-20T05:33:43;10.60;99.90
42743;DHT22;28397;44.552;-0.848;2023-12-20T05:36:09;10.80;99.90
42743;DHT22;28397;44.552;-0.848;2023-12-20T05:38:37;10.90;99.90
42743;DHT22;28397;44.552;-0.848;2023-12-20T05:41:02;10.90;99.90
42743;DHT22;28397;44.552;-0.848;2023-12-20T05:43:29;11.00;99.90
42743;DHT22;28397;44.552;-0.848;2023-12-20T05:45:54;11.20;99.90
42743;DHT22;28397;44.552;-0.848;2023-12-20T05:48:20;11.10;99.90
42743;DHT22;28397;44.552;-0.848;2023-12-20T05:50:46;11.20;99.90
42743;DHT22;28397;44.552;-0.848;2023-12-20T05:53:11;11.20;99.90
42743;DHT22;28397;44.552;-0.848;2023-12-20T05:55:37;11.20;99.90
42743;DHT22;28397;44.552;-0.848;2023-12-20T05:58:03;11.20;99.90
42743;DHT22;28397;44.552;-0.848;2023-12-20T06:00:28;11.20;99.90
42743;DHT22;28397;44.552;-0.848;2023-12-20T06:02:54;11.00;99.90
42743;DHT22;28397;44.552;-0.848;2023-12-20T06:05:20;10.80;99.90
42743;DHT22;28397;44.552;-0.848;2023-12-20T06:07:46;10.70;99.90
42743;DHT22;28397;44.552;-0.848;2023-12-20T06:10:13;10.60;99.90
42743;DHT22;28397;44.552;-0.848;2023-12-20T06:12:39;10.50;99.90
42743;DHT22;28397;44.552;-0.848;2023-12-20T06:15:06;10.40;99.90
42743;DHT22;28397;44.552;-0.848;2023-12-20T06:17:32;10.30;99.90
42743;DHT22;28397;44.552;-0.848;2023-12-20T06:19:57;10.30;99.90
42743;DHT22;28397;44.552;-0.848;2023-12-20T06:22:23;10.20;99.90
42743;DHT22;28397;44.552;-0.848;2023-12-20T06:24:49;10.10;99.90
42743;DHT22;28397;44.552;-0.848;2023-12-20T06:27:14;10.00;99.90
42743;DHT22;28397;44.552;-0.848;2023-12-20T06:29:40;9.90;99.90
42743;DHT22;28397;44.552;-0.848;2023-12-20T06:32:06;9.80;99.90
42743;DHT22;28397;44.552;-0.848;2023-12-20T06:34:32;9.80;99.90
42743;DHT22;28397;44.552;-0.848;2023-12-20T06:36:58;9.70;99.90
42743;DHT22;28397;44.552;-0.848;2023-12-20T06:39:23;9.70;99.90
42743;DHT22;28397;44.552;-0.848;2023-12-20T06:41:49;9.60;99.90
42743;DHT22;28397;44.552;-0.848;2023-12-20T06:44:15;9.60;99.90
42743;DHT22;28397;44.552;-0.848;2023-12-20T06:46:40;9.60;99.90
42743;DHT22;28397;44.552;-0.848;2023-12-20T06:49:06;9.50;99.90
42743;DHT22;28397;44.552;-0.848;2023-12-20T06:51:31;9.50;99.90
42743;DHT22;28397;44.552;-0.848;2023-12-20T06:53:57;9.50;99.90
42743;DHT22;28397;44.552;-0.848;2023-12-20T06:56:23;9.50;99.90
42743;DHT22;28397;44.552;-0.848;2023-12-20T06:58:48;9.50;99.90
42743;DHT22;28397;44.552;-0.848;2023-12-20T07:01:15;9.40;99.90
42743;DHT22;28397;44.552;-0.848;2023-12-20T07:03:41;9.50;99.90
42743;DHT22;28397;44.552;-0.848;2023-12-20T07:06:07;9.40;99.90
42743;DHT22;28397;44.552;-0.848;2023-12-20T07:08:33;9.40;99.90
42743;DHT22;28397;44.552;-0.848;2023-12-20T07:10:59;9.30;99.90
42743;DHT22;28397;44.552;-0.848;2023-12-20T07:13:24;9.30;99.90
42743;DHT22;28397;44.552;-0.848;2023-12-20T07:15:50;9.20;99.90
42743;DHT22;28397;44.552;-0.848;2023-12-20T07:18:16;9.30;99.90
42743;DHT22;28397;44.552;-0.848;2023-12-20T07:20:42;9.20;99.90
42743;DHT22;28397;44.552;-0.848;2023-12-20T07:23:08;9.20;99.90
42743;DHT22;28397;44.552;-0.848;2023-12-20T07:25:34;9.50;99.90
42743;DHT22;28397;44.552;-0.848;2023-12-20T07:28:00;9.60;99.90
42743;DHT22;28397;44.552;-0.848;2023-12-20T07:30:25;9.80;99.90
42743;DHT22;28397;44.552;-0.848;2023-12-20T07:32:51;10.00;99.90
42743;DHT22;28397;44.552;-0.848;2023-12-20T07:35:17;9.90;99.90
42743;DHT22;28397;44.552;-0.848;2023-12-20T07:37:43;9.80;99.90
42743;DHT22;28397;44.552;-0.848;2023-12-20T07:40:09;10.00;99.90
42743;DHT22;28397;44.552;-0.848;2023-12-20T07:42:35;10.00;99.90
42743;DHT22;28397;44.552;-0.848;2023-12-20T07:45:01;9.90;99.90
42743;DHT22;28397;44.552;-0.848;2023-12-20T07:47:26;10.00;99.90
42743;DHT22;28397;44.552;-0.848;2023-12-20T07:49:52;9.90;99.90
42743;DHT22;28397;44.552;-0.848;2023-12-20T07:52:18;9.80;99.90
42743;DHT22;28397;44.552;-0.848;2023-12-20T07:54:45;9.60;99.90
42743;DHT22;28397;44.552;-0.848;2023-12-20T07:57:11;9.50;99.90
42743;DHT22;28397;44.552;-0.848;2023-12-20T07:59:37;9.40;99.90
42743;DHT22;28397;44.552;-0.848;2023-12-20T08:02:03;9.40;99.90
42743;DHT22;28397;44.552;-0.848;2023-12-20T08:04:29;9.20;99.90
42743;DHT22;28397;44.552;-0.848;2023-12-20T08:06:55;9.30;99.90
42743;DHT22;28397;44.552;-0.848;2023-12-20T08:09:20;9.20;99.90
42743;DHT22;28397;44.552;-0.848;2023-12-20T08:11:47;9.20;99.90
42743;DHT22;28397;44.552;-0.848;2023-12-20T08:14:13;9.20;99.90
42743;DHT22;28397;44.552;-0.848;2023-12-20T08:16:39;9.20;99.90
42743;DHT22;28397;44.552;-0.848;2023-12-20T08:19:04;9.20;99.90
42743;DHT22;28397;44.552;-0.848;2023-12-20T08:21:30;9.20;99.90
42743;DHT22;28397;44.552;-0.848;2023-12-20T08:23:56;9.20;99.90
42743;DHT22;28397;44.552;-0.848;2023-12-20T08:26:21;9.20;99.90
42743;DHT22;28397;44.552;-0.848;2023-12-20T08:28:48;9.20;99.90
42743;DHT22;28397;44.552;-0.848;2023-12-20T08:31:15;9.20;99.90
42743;DHT22;28397;44.552;-0.848;2023-12-20T08:33:45;9.20;99.90
42743;DHT22;28397;44.552;-0.848;2023-12-20T08:36:11;9.20;99.90
42743;DHT22;28397;44.552;-0.848;2023-12-20T08:38:37;9.20;99.90
42743;DHT22;28397;44.552;-0.848;2023-12-20T08:41:03;9.20;99.90
42743;DHT22;28397;44.552;-0.848;2023-12-20T08:43:39;9.20;99.90
42743;DHT22;28397;44.552;-0.848;2023-12-20T08:46:08;9.20;99.90
42743;DHT22;28397;44.552;-0.848;2023-12-20T08:48:37;9.20;99.90
42743;DHT22;28397;44.552;-0.848;2023-12-20T08:51:03;9.30;99.90
42743;DHT22;28397;44.552;-0.848;2023-12-20T08:53:29;9.20;99.90
42743;DHT22;28397;44.552;-0.848;2023-12-20T08:55:55;9.20;99.90
42743;DHT22;28397;44.552;-0.848;2023-12-20T08:58:21;9.30;99.90
42743;DHT22;28397;44.552;-0.848;2023-12-20T09:00:47;9.30;99.90
42743;DHT22;28397;44.552;-0.848;2023-12-20T09:03:12;9.30;99.90
42743;DHT22;28397;44.552;-0.848;2023-12-20T09:05:38;9.30;99.90
42743;DHT22;28397;44.552;-0.848;2023-12-20T09:08:04;9.30;99.90
42743;DHT22;28397;44.552;-0.848;2023-12-20T09:10:30;9.30;99.90
42743;DHT22;28397;44.552;-0.848;2023-12-20T09:12:55;9.30;99.90
42743;DHT22;28397;44.552;-0.848;2023-12-20T09:15:26;9.40;99.90
42743;DHT22;28397;44.552;-0.848;2023-12-20T09:17:53;9.50;99.90
42743;DHT22;28397;44.552;-0.848;2023-12-20T09:20:19;9.70;99.90
42743;DHT22;28397;44.552;-0.848;2023-12-20T09:22:45;9.80;99.90
42743;DHT22;28397;44.552;-0.848;2023-12-20T09:25:11;9.90;99.90
42743;DHT22;28397;44.552;-0.848;2023-12-20T09:27:38;10.10;99.90
42743;DHT22;28397;44.552;-0.848;2023-12-20T09:30:04;10.20;99.90
42743;DHT22;28397;44.552;-0.848;2023-12-20T09:32:31;10.20;99.90
42743;DHT22;28397;44.552;-0.848;2023-12-20T09:34:56;10.20;99.90
42743;DHT22;28397;44.552;-0.848;2023-12-20T09:37:26;10.20;99.90
42743;DHT22;28397;44.552;-0.848;2023-12-20T09:39:51;10.20;99.90
42743;DHT22;28397;44.552;-0.848;2023-12-20T09:42:25;10.20;99.90
42743;DHT22;28397;44.552;-0.848;2023-12-20T09:44:55;10.20;99.90
42743;DHT22;28397;44.552;-0.848;2023-12-20T09:47:23;10.10;99.90
42743;DHT22;28397;44.552;-0.848;2023-12-20T09:49:50;10.00;99.90
42743;DHT22;28397;44.552;-0.848;2023-12-20T09:52:18;9.90;99.90
42743;DHT22;28397;44.552;-0.848;2023-12-20T09:54:45;9.90;99.90
42743;DHT22;28397;44.552;-0.848;2023-12-20T09:57:12;9.90;99.90
42743;DHT22;28397;44.552;-0.848;2023-12-20T09:59:38;9.90;99.90
42743;DHT22;28397;44.552;-0.848;2023-12-20T10:02:09;9.90;99.90
42743;DHT22;28397;44.552;-0.848;2023-12-20T10:04:37;9.90;99.90
42743;DHT22;28397;44.552;-0.848;2023-12-20T10:07:03;9.90;99.90
42743;DHT22;28397;44.552;-0.848;2023-12-20T10:09:32;9.90;99.90
42743;DHT22;28397;44.552;-0.848;2023-12-20T10:11:58;9.80;99.90
42743;DHT22;28397;44.552;-0.848;2023-12-20T10:14:24;9.90;99.90
42743;DHT22;28397;44.552;-0.848;2023-12-20T10:16:50;9.90;99.90
42743;DHT22;28397;44.552;-0.848;2023-12-20T10:19:19;9.80;99.90
42743;DHT22;28397;44.552;-0.848;2023-12-20T10:21:45;9.80;99.90
42743;DHT22;28397;44.552;-0.848;2023-12-20T10:24:17;9.80;99.90
42743;DHT22;28397;44.552;-0.848;2023-12-20T10:26:42;9.80;99.90
42743;DHT22;28397;44.552;-0.848;2023-12-20T10:29:08;9.80;99.90
42743;DHT22;28397;44.552;-0.848;2023-12-20T10:31:35;9.80;99.90
42743;DHT22;28397;44.552;-0.848;2023-12-20T10:34:02;9.90;99.90
42743;DHT22;28397;44.552;-0.848;2023-12-20T10:36:30;9.90;99.90
42743;DHT22;28397;44.552;-0.848;2023-12-20T10:38:56;10.00;99.90
42743;DHT22;28397;44.552;-0.848;2023-12-20T10:44:00;10.10;99.90
42743;DHT22;28397;44.552;-0.848;2023-12-20T10:46:27;10.10;99.90
42743;DHT22;28397;44.552;-0.848;2023-12-20T10:48:54;10.20;99.90
42743;DHT22;28397;44.552;-0.848;2023-12-20T10:51:21;10.20;99.90
42743;DHT22;28397;44.552;-0.848;2023-12-20T10:53:50;10.30;99.90
42743;DHT22;28397;44.552;-0.848;2023-12-20T10:56:17;10.40;99.90
42743;DHT22;28397;44.552;-0.848;2023-12-20T10:58:44;10.50;99.90
42743;DHT22;28397;44.552;-0.848;2023-12-20T11:01:13;10.60;99.90
42743;DHT22;28397;44.552;-0.848;2023-12-20T11:03:52;10.60;99.90
42743;DHT22;28397;44.552;-0.848;2023-12-20T11:06:46;10.60;99.90
42743;DHT22;28397;44.552;-0.848;2023-12-20T11:09:22;10.70;99.90
42743;DHT22;28397;44.552;-0.848;2023-12-20T11:12:14;10.90;99.90
42743;DHT22;28397;44.552;-0.848;2023-12-20T11:14:48;11.10;99.90
42743;DHT22;28397;44.552;-0.848;2023-12-20T11:17:14;11.20;99.90
42743;DHT22;28397;44.552;-0.848;2023-12-20T11:22:27;11.40;99.90
42743;DHT22;28397;44.552;-0.848;2023-12-20T11:25:03;11.50;99.90
42743;DHT22;28397;44.552;-0.848;2023-12-20T11:27:30;11.50;99.90
42743;DHT22;28397;44.552;-0.848;2023-12-20T11:29:57;11.50;99.90
42743;DHT22;28397;44.552;-0.848;2023-12-20T11:37:21;11.80;99.90
42743;DHT22;28397;44.552;-0.848;2023-12-20T11:40:07;11.60;99.90
42743;DHT22;28397;44.552;-0.848;2023-12-20T11:42:51;11.50;99.90
42743;DHT22;28397;44.552;-0.848;2023-12-20T11:45:19;11.40;99.90
42743;DHT22;28397;44.552;-0.848;2023-12-20T11:47:48;11.30;99.90
42743;DHT22;28397;44.552;-0.848;2023-12-20T11:50:17;11.20;99.90
42743;DHT22;28397;44.552;-0.848;2023-12-20T11:52:43;11.10;99.90
42743;DHT22;28397;44.552;-0.848;2023-12-20T11:55:09;11.10;99.90
42743;DHT22;28397;44.552;-0.848;2023-12-20T11:57:36;11.00;99.90
42743;DHT22;28397;44.552;-0.848;2023-12-20T12:00:03;11.00;99.90
42743;DHT22;28397;44.552;-0.848;2023-12-20T12:02:28;10.90;99.90
42743;DHT22;28397;44.552;-0.848;2023-12-20T12:04:54;10.90;99.90
42743;DHT22;28397;44.552;-0.848;2023-12-20T12:07:21;10.90;99.90
42743;DHT22;28397;44.552;-0.848;2023-12-20T12:09:47;10.90;99.90
42743;DHT22;28397;44.552;-0.848;2023-12-20T12:12:13;10.90;99.90
42743;DHT22;28397;44.552;-0.848;2023-12-20T12:14:39;10.90;99.90
42743;DHT22;28397;44.552;-0.848;2023-12-20T12:17:12;10.90;99.90
42743;DHT22;28397;44.552;-0.848;2023-12-20T12:19:41;11.00;99.90
42743;DHT22;28397;44.552;-0.848;2023-12-20T12:22:12;11.00;99.90
42743;DHT22;28397;44.552;-0.848;2023-12-20T12:24:48;11.00;99.90
42743;DHT22;28397;44.552;-0.848;2023-12-20T12:27:15;11.00;99.90
42743;DHT22;28397;44.552;-0.848;2023-12-20T12:29:43;11.00;99.90
42743;DHT22;28397;44.552;-0.848;2023-12-20T12:32:25;10.90;99.90
42743;DHT22;28397;44.552;-0.848;2023-12-20T12:34:51;10.90;99.90
42743;DHT22;28397;44.552;-0.848;2023-12-20T12:37:17;10.90;99.90
42743;DHT22;28397;44.552;-0.848;2023-12-20T12:39:42;10.90;99.90
42743;DHT22;28397;44.552;-0.848;2023-12-20T12:42:08;11.00;99.90
42743;DHT22;28397;44.552;-0.848;2023-12-20T12:44:34;10.90;99.90
42743;DHT22;28397;44.552;-0.848;2023-12-20T12:46:59;11.00;99.90
42743;DHT22;28397;44.552;-0.848;2023-12-20T12:49:25;10.90;99.90
42743;DHT22;28397;44.552;-0.848;2023-12-20T12:51:53;10.90;99.90
42743;DHT22;28397;44.552;-0.848;2023-12-20T12:54:21;10.90;99.90
42743;DHT22;28397;44.552;-0.848;2023-12-20T12:56:47;11.00;99.90
42743;DHT22;28397;44.552;-0.848;2023-12-20T12:59:13;11.00;99.90
42743;DHT22;28397;44.552;-0.848;2023-12-20T13:01:38;11.20;99.90
42743;DHT22;28397;44.552;-0.848;2023-12-20T13:04:04;11.30;99.90
42743;DHT22;28397;44.552;-0.848;2023-12-20T13:06:36;11.40;99.90
42743;DHT22;28397;44.552;-0.848;2023-12-20T13:09:02;11.60;99.90
42743;DHT22;28397;44.552;-0.848;2023-12-20T13:11:27;11.70;99.90
42743;DHT22;28397;44.552;-0.848;2023-12-20T13:13:53;11.70;99.90
42743;DHT22;28397;44.552;-0.848;2023-12-20T13:16:19;11.90;99.90
42743;DHT22;28397;44.552;-0.848;2023-12-20T13:18:44;12.10;99.90
42743;DHT22;28397;44.552;-0.848;2023-12-20T13:21:10;12.10;99.90
42743;DHT22;28397;44.552;-0.848;2023-12-20T13:23:36;12.20;99.90
42743;DHT22;28397;44.552;-0.848;2023-12-20T13:26:02;12.30;99.90
42743;DHT22;28397;44.552;-0.848;2023-12-20T13:28:28;12.20;99.90
42743;DHT22;28397;44.552;-0.848;2023-12-20T13:30:54;12.10;99.90
42743;DHT22;28397;44.552;-0.848;2023-12-20T13:33:20;12.10;99.90
42743;DHT22;28397;44.552;-0.848;2023-12-20T13:35:45;12.00;99.90
42743;DHT22;28397;44.552;-0.848;2023-12-20T13:38:13;11.90;99.90
42743;DHT22;28397;44.552;-0.848;2023-12-20T13:40:38;11.90;99.90
42743;DHT22;28397;44.552;-0.848;2023-12-20T13:43:04;12.00;99.90
42743;DHT22;28397;44.552;-0.848;2023-12-20T13:45:30;12.00;99.90
42743;DHT22;28397;44.552;-0.848;2023-12-20T13:47:55;12.10;99.90
42743;DHT22;28397;44.552;-0.848;2023-12-20T13:50:21;12.00;99.90
42743;DHT22;28397;44.552;-0.848;2023-12-20T13:52:47;11.90;99.90
42743;DHT22;28397;44.552;-0.848;2023-12-20T13:55:13;11.80;99.90
42743;DHT22;28397;44.552;-0.848;2023-12-20T13:57:39;11.70;99.90
42743;DHT22;28397;44.552;-0.848;2023-12-20T14:00:07;11.70;99.90
42743;DHT22;28397;44.552;-0.848;2023-12-20T14:02:40;11.60;99.90
42743;DHT22;28397;44.552;-0.848;2023-12-20T14:05:06;11.60;99.90
42743;DHT22;28397;44.552;-0.848;2023-12-20T14:07:32;11.60;99.90
42743;DHT22;28397;44.552;-0.848;2023-12-20T14:09:57;11.50;99.90
42743;DHT22;28397;44.552;-0.848;2023-12-20T14:12:25;11.60;99.90
42743;DHT22;28397;44.552;-0.848;2023-12-20T14:14:50;11.60;99.90
42743;DHT22;28397;44.552;-0.848;2023-12-20T14:17:17;11.60;99.90
42743;DHT22;28397;44.552;-0.848;2023-12-20T14:19:43;11.60;99.90
42743;DHT22;28397;44.552;-0.848;2023-12-20T14:22:09;11.60;99.90
42743;DHT22;28397;44.552;-0.848;2023-12-20T14:24:35;11.60;99.90
42743;DHT22;28397;44.552;-0.848;2023-12-20T14:27:01;11.60;99.90
42743;DHT22;28397;44.552;-0.848;2023-12-20T14:29:27;11.70;99.90
42743;DHT22;28397;44.552;-0.848;2023-12-20T14:31:53;11.70;99.90
42743;DHT22;28397;44.552;-0.848;2023-12-20T14:34:18;11.70;99.90
42743;DHT22;28397;44.552;-0.848;2023-12-20T14:36:44;11.70;99.90
42743;DHT22;28397;44.552;-0.848;2023-12-20T14:39:10;11.70;99.90
42743;DHT22;28397;44.552;-0.848;2023-12-20T14:41:38;11.70;99.90
42743;DHT22;28397;44.552;-0.848;2023-12-20T14:44:05;11.70;99.90
42743;DHT22;28397;44.552;-0.848;2023-12-20T14:46:32;11.70;99.90
42743;DHT22;28397;44.552;-0.848;2023-12-20T14:48:57;11.70;99.90
42743;DHT22;28397;44.552;-0.848;2023-12-20T14:51:23;11.80;99.90
42743;DHT22;28397;44.552;-0.848;2023-12-20T14:53:50;12.00;99.90
42743;DHT22;28397;44.552;-0.848;2023-12-20T14:56:15;12.30;99.90
42743;DHT22;28397;44.552;-0.848;2023-12-20T14:58:41;12.40;99.90
42743;DHT22;28397;44.552;-0.848;2023-12-20T15:01:07;12.40;99.90
42743;DHT22;28397;44.552;-0.848;2023-12-20T15:03:34;12.40;99.90
42743;DHT22;28397;44.552;-0.848;2023-12-20T15:06:00;12.40;99.90
42743;DHT22;28397;44.552;-0.848;2023-12-20T15:08:26;12.60;99.90
42743;DHT22;28397;44.552;-0.848;2023-12-20T15:10:52;12.60;99.90
42743;DHT22;28397;44.552;-0.848;2023-12-20T15:13:18;12.60;99.90
42743;DHT22;28397;44.552;-0.848;2023-12-20T15:15:44;12.50;99.90
42743;DHT22;28397;44.552;-0.848;2023-12-20T15:18:09;12.60;99.90
42743;DHT22;28397;44.552;-0.848;2023-12-20T15:20:35;12.60;99.90
42743;DHT22;28397;44.552;-0.848;2023-12-20T15:23:02;12.40;99.90
42743;DHT22;28397;44.552;-0.848;2023-12-20T15:25:32;12.20;99.90